sensor_id;sensor_type;location;lat;lon;timestamp;P1;durP1;ratioP1;P2;durP2;ratioP2
18188;SDS011;9219;50.396;8.546;2024-01-15T00:13:37;20.97;;;9.97;;
18188;SDS011;9219;50.396;8.546;2024-01-15T00:16:20;19.90;;;6.60;;
18188;SDS011;9219;50.396;8.546;2024-01-15T00:25:57;14.27;;;6.10;;
18188;SDS011;9219;50.396;8.546;2024-01-15T00:29:11;21.37;;;9.10;;
18188;SDS011;9219;50.396;8.546;2024-01-15T00:32:24;24.10;;;8.77;;
18188;SDS011;9219;50.396;8.546;2024-01-15T00:35:24;24.20;;;8.80;;
18188;SDS011;9219;50.396;8.546;2024-01-15T00:38:35;22.70;;;8.40;;
18188;SDS011;9219;50.396;8.546;2024-01-15T00:41:22;23.67;;;8.57;;
18188;SDS011;9219;50.396;8.546;2024-01-15T00:47:17;21.23;;;8.17;;
18188;SDS011;9219;50.396;8.546;2024-01-15T00:50:08;29.53;;;8.90;;
18188;SDS011;9219;50.396;8.546;2024-01-15T00:52:59;18.50;;;8.67;;
18188;SDS011;9219;50.396;8.546;2024-01-15T00:55:46;18.90;;;8.30;;
18188;SDS011;9219;50.396;8.546;2024-01-15T01:01:51;31.00;;;10.47;;
18188;SDS011;9219;50.396;8.546;2024-01-15T01:18:37;30.50;;;12.97;;
18188;SDS011;9219;50.396;8.546;2024-01-15T01:21:08;25.20;;;10.00;;
18188;SDS011;9219;50.396;8.546;2024-01-15T01:24:06;21.77;;;8.67;;
18188;SDS011;9219;50.396;8.546;2024-01-15T01:30:40;23.53;;;8.90;;
18188;SDS011;9219;50.396;8.546;2024-01-15T01:39:53;26.27;;;10.33;;
18188;SDS011;9219;50.396;8.546;2024-01-15T01:46:34;29.30;;;10.43;;
18188;SDS011;9219;50.396;8.546;2024-01-15T01:49:41;26.20;;;8.87;;
18188;SDS011;9219;50.396;8.546;2024-01-15T01:52:42;28.90;;;10.70;;
18188;SDS011;9219;50.396;8.546;2024-01-15T01:55:50;25.20;;;8.33;;
18188;SDS011;9219;50.396;8.546;2024-01-15T01:58:34;27.03;;;10.10;;
18188;SDS011;9219;50.396;8.546;2024-01-15T02:04:03;30.10;;;11.33;;
18188;SDS011;9219;50.396;8.546;2024-01-15T02:20:29;24.13;;;9.93;;
18188;SDS011;9219;50.396;8.546;2024-01-15T02:26:28;28.83;;;10.17;;
18188;SDS011;9219;50.396;8.546;2024-01-15T02:29:22;26.87;;;10.50;;
18188;SDS011;9219;50.396;8.546;2024-01-15T02:42:11;26.33;;;8.40;;
18188;SDS011;9219;50.396;8.546;2024-01-15T02:44:50;23.30;;;9.03;;
18188;SDS011;9219;50.396;8.546;2024-01-15T02:47:45;35.57;;;10.70;;
18188;SDS011;9219;50.396;8.546;2024-01-15T02:54:45;25.37;;;9.23;;
18188;SDS011;9219;50.396;8.546;2024-01-15T02:57:24;30.03;;;12.17;;
18188;SDS011;9219;50.396;8.546;2024-01-15T03:00:18;31.43;;;11.43;;
18188;SDS011;9219;50.396;8.546;2024-01-15T03:03:06;28.67;;;11.20;;
18188;SDS011;9219;50.396;8.546;2024-01-15T03:05:49;32.00;;;9.97;;
18188;SDS011;9219;50.396;8.546;2024-01-15T03:19:17;22.27;;;8.43;;
18188;SDS011;9219;50.396;8.546;2024-01-15T03:21:50;38.03;;;10.57;;
18188;SDS011;9219;50.396;8.546;2024-01-15T03:24:18;24.67;;;10.93;;
18188;SDS011;9219;50.396;8.546;2024-01-15T03:26:46;35.20;;;11.37;;
18188;SDS011;9219;50.396;8.546;2024-01-15T03:29:13;31.53;;;10.83;;
18188;SDS011;9219;50.396;8.546;2024-01-15T03:31:40;28.87;;;12.23;;
18188;SDS011;9219;50.396;8.546;2024-01-15T03:34:11;42.43;;;10.97;;
18188;SDS011;9219;50.396;8.546;2024-01-15T03:40:49;38.33;;;12.87;;
18188;SDS011;9219;50.396;8.546;2024-01-15T03:43:38;32.50;;;10.90;;
18188;SDS011;9219;50.396;8.546;2024-01-15T03:46:15;36.07;;;9.97;;
18188;SDS011;9219;50.396;8.546;2024-01-15T03:49:15;25.97;;;10.57;;
18188;SDS011;9219;50.396;8.546;2024-01-15T03:52:14;30.50;;;10.60;;
18188;SDS011;9219;50.396;8.546;2024-01-15T03:55:11;36.43;;;10.93;;
18188;SDS011;9219;50.396;8.546;2024-01-15T03:58:14;28.00;;;10.70;;
18188;SDS011;9219;50.396;8.546;2024-01-15T04:01:41;30.33;;;10.60;;
18188;SDS011;9219;50.396;8.546;2024-01-15T04:04:24;39.50;;;11.17;;
18188;SDS011;9219;50.396;8.546;2024-01-15T04:07:06;33.20;;;11.20;;
18188;SDS011;9219;50.396;8.546;2024-01-15T04:09:51;29.73;;;11.60;;
18188;SDS011;9219;50.396;8.546;2024-01-15T04:12:40;26.20;;;9.13;;
18188;SDS011;9219;50.396;8.546;2024-01-15T04:15:57;32.83;;;12.13;;
18188;SDS011;9219;50.396;8.546;2024-01-15T04:18:41;31.50;;;11.73;;
18188;SDS011;9219;50.396;8.546;2024-01-15T04:34:35;34.57;;;11.23;;
18188;SDS011;9219;50.396;8.546;2024-01-15T04:40:20;30.67;;;10.00;;
18188;SDS011;9219;50.396;8.546;2024-01-15T04:43:06;39.63;;;12.80;;
18188;SDS011;9219;50.396;8.546;2024-01-15T04:46:30;27.87;;;10.67;;
18188;SDS011;9219;50.396;8.546;2024-01-15T04:49:03;36.93;;;11.93;;
18188;SDS011;9219;50.396;8.546;2024-01-15T04:52:25;39.60;;;12.60;;
18188;SDS011;9219;50.396;8.546;2024-01-15T04:54:58;38.70;;;12.97;;
18188;SDS011;9219;50.396;8.546;2024-01-15T04:58:01;33.13;;;13.23;;
18188;SDS011;9219;50.396;8.546;2024-01-15T05:00:53;28.37;;;10.80;;
18188;SDS011;9219;50.396;8.546;2024-01-15T05:04:23;39.93;;;11.80;;
18188;SDS011;9219;50.396;8.546;2024-01-15T05:10:38;38.23;;;12.57;;
18188;SDS011;9219;50.396;8.546;2024-01-15T05:13:44;27.20;;;11.03;;
18188;SDS011;9219;50.396;8.546;2024-01-15T05:16:26;31.23;;;12.00;;
18188;SDS011;9219;50.396;8.546;2024-01-15T05:19:11;41.37;;;13.30;;
18188;SDS011;9219;50.396;8.546;2024-01-15T05:21:48;31.40;;;11.93;;
18188;SDS011;9219;50.396;8.546;2024-01-15T05:28:19;37.67;;;12.37;;
18188;SDS011;9219;50.396;8.546;2024-01-15T05:30:36;32.87;;;11.67;;
18188;SDS011;9219;50.396;8.546;2024-01-15T05:33:44;25.17;;;11.10;;
18188;SDS011;9219;50.396;8.546;2024-01-15T05:36:32;34.20;;;13.43;;
18188;SDS011;9219;50.396;8.546;2024-01-15T05:43:36;30.07;;;12.07;;
18188;SDS011;9219;50.396;8.546;2024-01-15T05:46:25;37.10;;;11.50;;
18188;SDS011;9219;50.396;8.546;2024-01-15T05:49:16;33.30;;;11.10;;
18188;SDS011;9219;50.396;8.546;2024-01-15T05:51:58;34.97;;;12.20;;
18188;SDS011;9219;50.396;8.546;2024-01-15T05:54:28;33.13;;;12.77;;
18188;SDS011;9219;50.396;8.546;2024-01-15T06:11:31;40.07;;;14.10;;
18188;SDS011;9219;50.396;8.546;2024-01-15T06:14:31;34.53;;;11.50;;
18188;SDS011;9219;50.396;8.546;2024-01-15T06:26:39;35.97;;;14.00;;
18188;SDS011;9219;50.396;8.546;2024-01-15T06:36:32;41.23;;;15.57;;
18188;SDS011;9219;50.396;8.546;2024-01-15T06:42:09;34.83;;;12.13;;
18188;SDS011;9219;50.396;8.546;2024-01-15T06:44:53;31.20;;;12.70;;
18188;SDS011;9219;50.396;8.546;2024-01-15T06:56:10;36.73;;;11.57;;
18188;SDS011;9219;50.396;8.546;2024-01-15T06:58:38;24.10;;;10.90;;
18188;SDS011;9219;50.396;8.546;2024-01-15T07:01:05;28.23;;;12.37;;
18188;SDS011;9219;50.396;8.546;2024-01-15T07:03:33;41.50;;;12.70;;
18188;SDS011;9219;50.396;8.546;2024-01-15T07:06:02;39.33;;;15.60;;
18188;SDS011;9219;50.396;8.546;2024-01-15T07:08:29;41.77;;;13.73;;
18188;SDS011;9219;50.396;8.546;2024-01-15T07:10:57;37.30;;;15.10;;
18188;SDS011;9219;50.396;8.546;2024-01-15T07:38:49;34.97;;;12.23;;
18188;SDS011;9219;50.396;8.546;2024-01-15T07:41:30;33.33;;;12.53;;
18188;SDS011;9219;50.396;8.546;2024-01-15T07:51:27;30.87;;;11.37;;
18188;SDS011;9219;50.396;8.546;2024-01-15T07:55:04;32.70;;;12.50;;
18188;SDS011;9219;50.396;8.546;2024-01-15T07:57:43;35.27;;;13.07;;
18188;SDS011;9219;50.396;8.546;2024-01-15T08:00:45;34.77;;;12.20;;
18188;SDS011;9219;50.396;8.546;2024-01-15T08:04:19;36.23;;;12.47;;
18188;SDS011;9219;50.396;8.546;2024-01-15T08:14:08;35.97;;;11.47;;
18188;SDS011;9219;50.396;8.546;2024-01-15T08:46:07;26.83;;;9.80;;
18188;SDS011;9219;50.396;8.546;2024-01-15T08:55:31;28.10;;;10.47;;
18188;SDS011;9219;50.396;8.546;2024-01-15T08:58:17;26.87;;;11.37;;
18188;SDS011;9219;50.396;8.546;2024-01-15T09:00:47;26.03;;;10.43;;
18188;SDS011;9219;50.396;8.546;2024-01-15T09:03:32;29.47;;;11.27;;
18188;SDS011;9219;50.396;8.546;2024-01-15T09:06:03;22.63;;;8.83;;
18188;SDS011;9219;50.396;8.546;2024-01-15T09:08:42;26.03;;;11.33;;
18188;SDS011;9219;50.396;8.546;2024-01-15T09:11:18;36.13;;;11.37;;
18188;SDS011;9219;50.396;8.546;2024-01-15T09:14:11;24.63;;;9.93;;
18188;SDS011;9219;50.396;8.546;2024-01-15T09:17:03;31.87;;;11.13;;
18188;SDS011;9219;50.396;8.546;2024-01-15T09:39:30;28.33;;;8.80;;
18188;SDS011;9219;50.396;8.546;2024-01-15T09:42:08;20.33;;;9.17;;
18188;SDS011;9219;50.396;8.546;2024-01-15T09:45:31;20.63;;;8.87;;
18188;SDS011;9219;50.396;8.546;2024-01-15T09:48:58;22.20;;;9.67;;
18188;SDS011;9219;50.396;8.546;2024-01-15T10:01:05;23.63;;;10.43;;
18188;SDS011;9219;50.396;8.546;2024-01-15T10:03:51;24.10;;;9.03;;
18188;SDS011;9219;50.396;8.546;2024-01-15T10:06:34;23.50;;;8.47;;
18188;SDS011;9219;50.396;8.546;2024-01-15T10:27:47;15.13;;;7.97;;
18188;SDS011;9219;50.396;8.546;2024-01-15T10:30:28;15.33;;;7.13;;
18188;SDS011;9219;50.396;8.546;2024-01-15T10:32:59;13.50;;;5.47;;
18188;SDS011;9219;50.396;8.546;2024-01-15T10:35:28;18.03;;;7.87;;
18188;SDS011;9219;50.396;8.546;2024-01-15T10:37:56;14.10;;;6.30;;
18188;SDS011;9219;50.396;8.546;2024-01-15T10:40:24;14.37;;;7.23;;
18188;SDS011;9219;50.396;8.546;2024-01-15T10:54:56;12.17;;;5.60;;
18188;SDS011;9219;50.396;8.546;2024-01-15T10:57:50;7.80;;;4.30;;
18188;SDS011;9219;50.396;8.546;2024-01-15T11:00:33;13.40;;;6.57;;
18188;SDS011;9219;50.396;8.546;2024-01-15T11:03:12;10.43;;;4.57;;
18188;SDS011;9219;50.396;8.546;2024-01-15T11:05:47;9.23;;;4.53;;
18188;SDS011;9219;50.396;8.546;2024-01-15T11:08:38;11.80;;;5.47;;
18188;SDS011;9219;50.396;8.546;2024-01-15T11:11:21;15.47;;;5.77;;
18188;SDS011;9219;50.396;8.546;2024-01-15T11:27:00;11.33;;;4.53;;
18188;SDS011;9219;50.396;8.546;2024-01-15T11:29:29;14.07;;;5.77;;
18188;SDS011;9219;50.396;8.546;2024-01-15T11:32:01;10.50;;;5.37;;
18188;SDS011;9219;50.396;8.546;2024-01-15T11:34:51;11.43;;;6.17;;
18188;SDS011;9219;50.396;8.546;2024-01-15T11:37:25;8.90;;;4.90;;
18188;SDS011;9219;50.396;8.546;2024-01-15T11:39:54;13.03;;;5.10;;
18188;SDS011;9219;50.396;8.546;2024-01-15T11:51:17;13.07;;;7.03;;
18188;SDS011;9219;50.396;8.546;2024-01-15T11:53:52;15.87;;;6.70;;
18188;SDS011;9219;50.396;8.546;2024-01-15T11:56:31;16.43;;;7.33;;
18188;SDS011;9219;50.396;8.546;2024-01-15T11:58:59;12.73;;;5.43;;
18188;SDS011;9219;50.396;8.546;2024-01-15T12:01:38;10.93;;;5.63;;
18188;SDS011;9219;50.396;8.546;2024-01-15T12:04:07;12.23;;;7.23;;
18188;SDS011;9219;50.396;8.546;2024-01-15T12:06:44;17.63;;;7.13;;
18188;SDS011;9219;50.396;8.546;2024-01-15T12:09:19;14.80;;;5.80;;
18188;SDS011;9219;50.396;8.546;2024-01-15T12:11:54;13.20;;;6.40;;
18188;SDS011;9219;50.396;8.546;2024-01-15T12:24:09;18.50;;;7.13;;
18188;SDS011;9219;50.396;8.546;2024-01-15T12:26:52;20.90;;;7.70;;
18188;SDS011;9219;50.396;8.546;2024-01-15T12:29:24;21.47;;;7.47;;
18188;SDS011;9219;50.396;8.546;2024-01-15T12:34:44;15.67;;;7.17;;
18188;SDS011;9219;50.396;8.546;2024-01-15T12:37:26;12.60;;;7.73;;
18188;SDS011;9219;50.396;8.546;2024-01-15T12:40:02;13.80;;;6.73;;
18188;SDS011;9219;50.396;8.546;2024-01-15T12:42:44;15.07;;;7.57;;
18188;SDS011;9219;50.396;8.546;2024-01-15T12:45:15;13.27;;;6.57;;
18188;SDS011;9219;50.396;8.546;2024-01-15T12:56:17;15.40;;;6.70;;
18188;SDS011;9219;50.396;8.546;2024-01-15T12:58:50;13.73;;;6.23;;
18188;SDS011;9219;50.396;8.546;2024-01-15T13:01:23;14.93;;;7.10;;
18188;SDS011;9219;50.396;8.546;2024-01-15T13:03:57;12.80;;;4.77;;
18188;SDS011;9219;50.396;8.546;2024-01-15T13:06:27;12.67;;;5.47;;
18188;SDS011;9219;50.396;8.546;2024-01-15T13:09:13;13.17;;;5.93;;
18188;SDS011;9219;50.396;8.546;2024-01-15T13:11:41;12.33;;;5.70;;
18188;SDS011;9219;50.396;8.546;2024-01-15T13:14:10;19.43;;;6.47;;
18188;SDS011;9219;50.396;8.546;2024-01-15T13:16:39;12.83;;;5.97;;
18188;SDS011;9219;50.396;8.546;2024-01-15T13:27:50;9.10;;;5.67;;
18188;SDS011;9219;50.396;8.546;2024-01-15T13:30:21;10.10;;;5.33;;
18188;SDS011;9219;50.396;8.546;2024-01-15T13:33:18;12.47;;;6.03;;
18188;SDS011;9219;50.396;8.546;2024-01-15T13:35:48;9.97;;;4.17;;
18188;SDS011;9219;50.396;8.546;2024-01-15T13:38:15;14.10;;;6.17;;
18188;SDS011;9219;50.396;8.546;2024-01-15T13:40:42;10.90;;;4.57;;
18188;SDS011;9219;50.396;8.546;2024-01-15T13:43:16;9.90;;;6.23;;
18188;SDS011;9219;50.396;8.546;2024-01-15T13:45:49;11.90;;;6.03;;
18188;SDS011;9219;50.396;8.546;2024-01-15T13:51:16;14.40;;;5.73;;
18188;SDS011;9219;50.396;8.546;2024-01-15T13:53:56;12.47;;;6.57;;
18188;SDS011;9219;50.396;8.546;2024-01-15T13:59:13;7.37;;;4.63;;
18188;SDS011;9219;50.396;8.546;2024-01-15T14:01:57;11.50;;;5.70;;
18188;SDS011;9219;50.396;8.546;2024-01-15T14:04:29;10.20;;;4.93;;
18188;SDS011;9219;50.396;8.546;2024-01-15T14:06:59;8.27;;;5.03;;
18188;SDS011;9219;50.396;8.546;2024-01-15T14:09:49;12.07;;;6.37;;
18188;SDS011;9219;50.396;8.546;2024-01-15T14:12:16;8.60;;;4.33;;
18188;SDS011;9219;50.396;8.546;2024-01-15T14:14:56;7.80;;;4.03;;
18188;SDS011;9219;50.396;8.546;2024-01-15T14:17:27;19.37;;;6.17;;
18188;SDS011;9219;50.396;8.546;2024-01-15T14:24:39;13.73;;;5.70;;
18188;SDS011;9219;50.396;8.546;2024-01-15T14:27:15;10.60;;;6.33;;
18188;SDS011;9219;50.396;8.546;2024-01-15T14:29:43;14.13;;;5.40;;
18188;SDS011;9219;50.396;8.546;2024-01-15T14:32:31;7.87;;;4.90;;
18188;SDS011;9219;50.396;8.546;2024-01-15T14:35:01;9.87;;;4.90;;
18188;SDS011;9219;50.396;8.546;2024-01-15T14:37:58;9.67;;;4.10;;
18188;SDS011;9219;50.396;8.546;2024-01-15T14:40:35;8.23;;;4.60;;
18188;SDS011;9219;50.396;8.546;2024-01-15T14:43:18;12.57;;;6.03;;
18188;SDS011;9219;50.396;8.546;2024-01-15T14:45:47;17.23;;;6.70;;
18188;SDS011;9219;50.396;8.546;2024-01-15T14:53:40;14.80;;;5.93;;
18188;SDS011;9219;50.396;8.546;2024-01-15T14:56:10;9.53;;;5.73;;
18188;SDS011;9219;50.396;8.546;2024-01-15T14:58:58;9.50;;;4.60;;
18188;SDS011;9219;50.396;8.546;2024-01-15T15:01:50;7.63;;;4.57;;
18188;SDS011;9219;50.396;8.546;2024-01-15T15:04:17;14.53;;;5.17;;
18188;SDS011;9219;50.396;8.546;2024-01-15T15:06:58;14.33;;;5.03;;
18188;SDS011;9219;50.396;8.546;2024-01-15T15:09:33;9.57;;;4.93;;
18188;SDS011;9219;50.396;8.546;2024-01-15T15:12:03;11.60;;;5.87;;
18188;SDS011;9219;50.396;8.546;2024-01-15T15:14:36;15.40;;;4.63;;
18188;SDS011;9219;50.396;8.546;2024-01-15T15:17:29;8.43;;;4.80;;
18188;SDS011;9219;50.396;8.546;2024-01-15T15:20:25;9.13;;;4.50;;
18188;SDS011;9219;50.396;8.546;2024-01-15T15:23:02;7.23;;;4.10;;
18188;SDS011;9219;50.396;8.546;2024-01-15T15:25:42;6.77;;;3.67;;
18188;SDS011;9219;50.396;8.546;2024-01-15T15:28:21;6.20;;;3.93;;
18188;SDS011;9219;50.396;8.546;2024-01-15T15:30:51;10.27;;;3.27;;
18188;SDS011;9219;50.396;8.546;2024-01-15T15:33:26;15.40;;;4.60;;
18188;SDS011;9219;50.396;8.546;2024-01-15T15:35:55;7.90;;;3.80;;
18188;SDS011;9219;50.396;8.546;2024-01-15T15:38:28;7.23;;;3.07;;
18188;SDS011;9219;50.396;8.546;2024-01-15T15:40:58;7.10;;;3.33;;
18188;SDS011;9219;50.396;8.546;2024-01-15T15:43:34;10.93;;;3.60;;
18188;SDS011;9219;50.396;8.546;2024-01-15T15:52:27;10.23;;;3.70;;
18188;SDS011;9219;50.396;8.546;2024-01-15T15:55:11;9.40;;;3.43;;
18188;SDS011;9219;50.396;8.546;2024-01-15T15:57:52;10.37;;;3.63;;
18188;SDS011;9219;50.396;8.546;2024-01-15T16:00:26;8.43;;;3.47;;
18188;SDS011;9219;50.396;8.546;2024-01-15T16:02:59;6.17;;;4.03;;
18188;SDS011;9219;50.396;8.546;2024-01-15T16:05:28;7.60;;;4.80;;
18188;SDS011;9219;50.396;8.546;2024-01-15T16:08:11;9.57;;;4.93;;
18188;SDS011;9219;50.396;8.546;2024-01-15T16:10:39;10.17;;;4.10;;
18188;SDS011;9219;50.396;8.546;2024-01-15T16:13:13;16.37;;;5.00;;
18188;SDS011;9219;50.396;8.546;2024-01-15T16:15:53;6.73;;;4.73;;
18188;SDS011;9219;50.396;8.546;2024-01-15T16:19:54;10.43;;;4.53;;
18188;SDS011;9219;50.396;8.546;2024-01-15T16:28:43;9.33;;;5.67;;
18188;SDS011;9219;50.396;8.546;2024-01-15T16:31:19;7.50;;;4.57;;
18188;SDS011;9219;50.396;8.546;2024-01-15T16:33:48;9.40;;;4.33;;
18188;SDS011;9219;50.396;8.546;2024-01-15T16:36:36;11.67;;;4.97;;
18188;SDS011;9219;50.396;8.546;2024-01-15T16:39:07;11.67;;;6.07;;
18188;SDS011;9219;50.396;8.546;2024-01-15T16:47:00;14.93;;;4.30;;
18188;SDS011;9219;50.396;8.546;2024-01-15T16:49:33;5.23;;;3.43;;
18188;SDS011;9219;50.396;8.546;2024-01-15T16:52:01;6.07;;;3.80;;
18188;SDS011;9219;50.396;8.546;2024-01-15T16:54:32;6.57;;;3.83;;
18188;SDS011;9219;50.396;8.546;2024-01-15T16:57:00;13.10;;;4.17;;
18188;SDS011;9219;50.396;8.546;2024-01-15T16:59:28;12.00;;;4.50;;
18188;SDS011;9219;50.396;8.546;2024-01-15T17:01:56;8.50;;;4.30;;
18188;SDS011;9219;50.396;8.546;2024-01-15T17:12:05;10.57;;;4.50;;
18188;SDS011;9219;50.396;8.546;2024-01-15T17:14:51;7.57;;;4.20;;
18188;SDS011;9219;50.396;8.546;2024-01-15T17:17:37;8.50;;;4.83;;
18188;SDS011;9219;50.396;8.546;2024-01-15T17:20:26;8.43;;;4.63;;
18188;SDS011;9219;50.396;8.546;2024-01-15T17:22:58;8.90;;;4.20;;
18188;SDS011;9219;50.396;8.546;2024-01-15T17:25:30;6.70;;;4.20;;
18188;SDS011;9219;50.396;8.546;2024-01-15T17:28:00;9.73;;;4.23;;
18188;SDS011;9219;50.396;8.546;2024-01-15T17:30:34;8.03;;;4.50;;
18188;SDS011;9219;50.396;8.546;2024-01-15T17:33:31;9.50;;;4.83;;
18188;SDS011;9219;50.396;8.546;2024-01-15T17:35:59;8.73;;;5.63;;
18188;SDS011;9219;50.396;8.546;2024-01-15T17:38:27;9.33;;;4.70;;
18188;SDS011;9219;50.396;8.546;2024-01-15T17:40:55;9.17;;;5.50;;
18188;SDS011;9219;50.396;8.546;2024-01-15T17:43:23;8.40;;;4.13;;
18188;SDS011;9219;50.396;8.546;2024-01-15T17:45:50;10.80;;;4.63;;
18188;SDS011;9219;50.396;8.546;2024-01-15T17:48:19;10.07;;;5.43;;
18188;SDS011;9219;50.396;8.546;2024-01-15T17:55:35;9.13;;;4.60;;
18188;SDS011;9219;50.396;8.546;2024-01-15T17:58:23;6.83;;;4.40;;
18188;SDS011;9219;50.396;8.546;2024-01-15T18:00:56;13.43;;;5.57;;
18188;SDS011;9219;50.396;8.546;2024-01-15T18:03:32;9.80;;;4.77;;
18188;SDS011;9219;50.396;8.546;2024-01-15T18:06:06;9.70;;;5.73;;
18188;SDS011;9219;50.396;8.546;2024-01-15T18:09:10;10.23;;;6.53;;
18188;SDS011;9219;50.396;8.546;2024-01-15T18:11:49;13.33;;;5.20;;
18188;SDS011;9219;50.396;8.546;2024-01-15T18:14:16;6.60;;;3.90;;
18188;SDS011;9219;50.396;8.546;2024-01-15T18:16:43;6.27;;;4.07;;
18188;SDS011;9219;50.396;8.546;2024-01-15T18:19:16;6.30;;;4.03;;
18188;SDS011;9219;50.396;8.546;2024-01-15T18:25:44;7.43;;;4.07;;
18188;SDS011;9219;50.396;8.546;2024-01-15T18:31:25;10.60;;;3.90;;
18188;SDS011;9219;50.396;8.546;2024-01-15T18:34:05;7.50;;;3.27;;
18188;SDS011;9219;50.396;8.546;2024-01-15T18:36:52;11.93;;;3.50;;
18188;SDS011;9219;50.396;8.546;2024-01-15T18:39:30;7.17;;;4.03;;
18188;SDS011;9219;50.396;8.546;2024-01-15T18:42:04;7.47;;;4.63;;
18188;SDS011;9219;50.396;8.546;2024-01-15T18:44:32;8.07;;;3.77;;
18188;SDS011;9219;50.396;8.546;2024-01-15T18:47:02;10.00;;;3.80;;
18188;SDS011;9219;50.396;8.546;2024-01-15T18:49:30;6.67;;;2.37;;
18188;SDS011;9219;50.396;8.546;2024-01-15T19:05:32;6.17;;;3.83;;
18188;SDS011;9219;50.396;8.546;2024-01-15T19:08:12;8.43;;;3.40;;
18188;SDS011;9219;50.396;8.546;2024-01-15T19:10:58;6.17;;;3.07;;
18188;SDS011;9219;50.396;8.546;2024-01-15T19:13:35;9.17;;;3.73;;
18188;SDS011;9219;50.396;8.546;2024-01-15T19:16:31;8.73;;;3.53;;
18188;SDS011;9219;50.396;8.546;2024-01-15T19:19:14;12.53;;;4.40;;
18188;SDS011;9219;50.396;8.546;2024-01-15T19:21:58;8.83;;;3.97;;
18188;SDS011;9219;50.396;8.546;2024-01-15T19:24:25;10.43;;;4.00;;
18188;SDS011;9219;50.396;8.546;2024-01-15T19:27:08;7.90;;;3.83;;
18188;SDS011;9219;50.396;8.546;2024-01-15T19:32:47;9.47;;;4.33;;
18188;SDS011;9219;50.396;8.546;2024-01-15T19:38:42;10.03;;;3.83;;
18188;SDS011;9219;50.396;8.546;2024-01-15T19:41:14;12.07;;;4.47;;
18188;SDS011;9219;50.396;8.546;2024-01-15T19:43:58;14.20;;;4.70;;
18188;SDS011;9219;50.396;8.546;2024-01-15T19:46:32;5.77;;;3.73;;
18188;SDS011;9219;50.396;8.546;2024-01-15T19:49:44;8.63;;;5.10;;
18188;SDS011;9219;50.396;8.546;2024-01-15T19:52:16;10.70;;;4.67;;
18188;SDS011;9219;50.396;8.546;2024-01-15T19:54:55;19.50;;;5.70;;
18188;SDS011;9219;50.396;8.546;2024-01-15T20:02:37;10.23;;;4.83;;
18188;SDS011;9219;50.396;8.546;2024-01-15T20:05:06;13.43;;;5.00;;
18188;SDS011;9219;50.396;8.546;2024-01-15T20:07:35;10.33;;;5.23;;
18188;SDS011;9219;50.396;8.546;2024-01-15T20:10:03;13.03;;;3.50;;
18188;SDS011;9219;50.396;8.546;2024-01-15T20:12:30;7.57;;;3.10;;
18188;SDS011;9219;50.396;8.546;2024-01-15T20:14:57;7.37;;;3.77;;
18188;SDS011;9219;50.396;8.546;2024-01-15T20:17:27;6.13;;;3.33;;
18188;SDS011;9219;50.396;8.546;2024-01-15T20:24:59;7.90;;;3.00;;
18188;SDS011;9219;50.396;8.546;2024-01-15T20:27:28;6.30;;;2.17;;
18188;SDS011;9219;50.396;8.546;2024-01-15T20:29:56;4.93;;;2.43;;
18188;SDS011;9219;50.396;8.546;2024-01-15T20:32:24;9.73;;;3.53;;
18188;SDS011;9219;50.396;8.546;2024-01-15T20:34:52;6.70;;;2.67;;
18188;SDS011;9219;50.396;8.546;2024-01-15T20:37:19;9.13;;;3.23;;
18188;SDS011;9219;50.396;8.546;2024-01-15T20:39:46;5.53;;;1.93;;
18188;SDS011;9219;50.396;8.546;2024-01-15T20:44:58;5.87;;;2.20;;
18188;SDS011;9219;50.396;8.546;2024-01-15T20:47:26;8.20;;;2.93;;
18188;SDS011;9219;50.396;8.546;2024-01-15T20:50:02;7.33;;;3.33;;
18188;SDS011;9219;50.396;8.546;2024-01-15T20:52:36;8.67;;;2.10;;
18188;SDS011;9219;50.396;8.546;2024-01-15T20:55:21;3.97;;;2.00;;
18188;SDS011;9219;50.396;8.546;2024-01-15T20:57:56;9.20;;;2.10;;
18188;SDS011;9219;50.396;8.546;2024-01-15T21:00:31;6.93;;;2.27;;
18188;SDS011;9219;50.396;8.546;2024-01-15T21:02:58;7.93;;;2.77;;
18188;SDS011;9219;50.396;8.546;2024-01-15T21:05:39;6.77;;;2.70;;
18188;SDS011;9219;50.396;8.546;2024-01-15T21:08:12;10.03;;;2.77;;
18188;SDS011;9219;50.396;8.546;2024-01-15T21:10:43;13.20;;;3.47;;
18188;SDS011;9219;50.396;8.546;2024-01-15T21:15:55;8.23;;;2.80;;
18188;SDS011;9219;50.396;8.546;2024-01-15T21:18:25;11.03;;;2.97;;
18188;SDS011;9219;50.396;8.546;2024-01-15T21:21:02;6.13;;;2.20;;
18188;SDS011;9219;50.396;8.546;2024-01-15T21:23:31;7.10;;;2.47;;
18188;SDS011;9219;50.396;8.546;2024-01-15T21:26:16;9.53;;;2.70;;
18188;SDS011;9219;50.396;8.546;2024-01-15T21:28:45;6.10;;;2.73;;
18188;SDS011;9219;50.396;8.546;2024-01-15T21:31:25;15.67;;;2.73;;
18188;SDS011;9219;50.396;8.546;2024-01-15T21:34:02;5.60;;;2.47;;
18188;SDS011;9219;50.396;8.546;2024-01-15T21:36:35;4.87;;;2.27;;
18188;SDS011;9219;50.396;8.546;2024-01-15T21:39:04;10.00;;;3.50;;
18188;SDS011;9219;50.396;8.546;2024-01-15T21:42:10;11.30;;;2.43;;
18188;SDS011;9219;50.396;8.546;2024-01-15T21:44:58;8.70;;;2.47;;
18188;SDS011;9219;50.396;8.546;2024-01-15T21:50:35;6.23;;;2.40;;
18188;SDS011;9219;50.396;8.546;2024-01-15T21:53:05;4.67;;;2.13;;
18188;SDS011;9219;50.396;8.546;2024-01-15T21:56:19;6.60;;;1.90;;
18188;SDS011;9219;50.396;8.546;2024-01-15T21:58:54;7.00;;;2.27;;
18188;SDS011;9219;50.396;8.546;2024-01-15T22:01:28;10.17;;;3.20;;
18188;SDS011;9219;50.396;8.546;2024-01-15T22:03:57;7.13;;;2.27;;
18188;SDS011;9219;50.396;8.546;2024-01-15T22:06:41;12.87;;;2.53;;
18188;SDS011;9219;50.396;8.546;2024-01-15T22:09:17;7.87;;;2.53;;
18188;SDS011;9219;50.396;8.546;2024-01-15T22:12:09;7.13;;;2.30;;
18188;SDS011;9219;50.396;8.546;2024-01-15T22:14:42;4.87;;;2.17;;
18188;SDS011;9219;50.396;8.546;2024-01-15T22:32:57;15.53;;;5.13;;
18188;SDS011;9219;50.396;8.546;2024-01-15T22:35:25;11.23;;;2.53;;
18188;SDS011;9219;50.396;8.546;2024-01-15T22:38:06;11.33;;;2.33;;
18188;SDS011;9219;50.396;8.546;2024-01-15T22:40:35;10.37;;;2.70;;
18188;SDS011;9219;50.396;8.546;2024-01-15T22:43:23;6.27;;;2.37;;
18188;SDS011;9219;50.396;8.546;2024-01-15T22:45:59;13.13;;;3.63;;
18188;SDS011;9219;50.396;8.546;2024-01-15T22:51:23;8.03;;;2.47;;
18188;SDS011;9219;50.396;8.546;2024-01-15T22:53:59;5.67;;;2.13;;
18188;SDS011;9219;50.396;8.546;2024-01-15T22:56:42;5.47;;;2.33;;
18188;SDS011;9219;50.396;8.546;2024-01-15T23:07:21;11.10;;;3.10;;
18188;SDS011;9219;50.396;8.546;2024-01-15T23:09:56;11.63;;;2.23;;
18188;SDS011;9219;50.396;8.546;2024-01-15T23:12:25;9.50;;;2.50;;
18188;SDS011;9219;50.396;8.546;2024-01-15T23:15:05;10.67;;;3.43;;
18188;SDS011;9219;50.396;8.546;2024-01-15T23:17:55;8.23;;;3.00;;
18188;SDS011;9219;50.396;8.546;2024-01-15T23:20:39;10.70;;;2.40;;
18188;SDS011;9219;50.396;8.546;2024-01-15T23:23:15;8.93;;;2.57;;
18188;SDS011;9219;50.396;8.546;2024-01-15T23:25:51;6.50;;;2.60;;
18188;SDS011;9219;50.396;8.546;2024-01-15T23:28:38;6.10;;;2.67;;
18188;SDS011;9219;50.396;8.546;2024-01-15T23:31:23;18.17;;;3.23;;
18188;SDS011;9219;50.396;8.546;2024-01-15T23:36:52;7.03;;;2.30;;
18188;SDS011;9219;50.396;8.546;2024-01-15T23:42:17;10.10;;;2.83;;
18188;SDS011;9219;50.396;8.546;2024-01-15T23:48:12;9.60;;;2.93;;
18188;SDS011;9219;50.396;8.546;2024-01-15T23:50:41;8.97;;;2.27;;
18188;SDS011;9219;50.396;8.546;2024-01-15T23:56:04;6.83;;;2.77;;
18188;SDS011;9219;50.396;8.546;2024-01-15T23:58:46;10.63;;;3.10;;
